Hlavní strana
METAR-TAF:

METAR-TAF

Letiště :

Halmstad, Švédsko

zeměpisná šířka: 56-41N, zeměpisná délka: 012-50E, výška: 30 m

Aktuální stav počasí

Zpráva byla vytvořena před 11 minutami, v 07:50 UTC
Severoseverozápadní vítr 12 kt
Teplota 8°C
Vlhkost vzduchu 71%
Tlak 1016 hPa
Viditelnost 10 km a více
Žádná oblačnost pod 1500 m, nevyskytují se cumulonimby.

METAR: ESMT 240750Z 34012KT CAVOK 08/03 Q1016

Čas: 10:01 (08:01 UTC)

Předpověď počasí

Zpráva byla vytvořena před 1 hodinou a 52 minutami, v 06:09 UTC
Předpověď platná od 24 v 06 UTC do 24 v 15 UTC
Severozápadní vítr 10 kt
Viditelnost 10 km a více
Polojasno ve výšce 3000 ft
Dočasný
od 24 v 09 UTC do 24 v 15 UTC
Severozápadní vítr 15 kt s nárazy do 25 kt

TAF: ESMT 240609Z 2406/2415 32010KT 9999 SCT030 TEMPO 2409/2415 32015G25KT

Stav a předpovědi počasí z více než 4 000 letišť (zprávy METAR a TAF).

Červené a žluté tečky na mapě představují dostupné meteorologické stanice.

Když kurzor umístíte na tečku, zobrazí se název stanice.

Pak kliknutím zobrazíte stav a předpověď počasí.

Chcete-li změnit mapu, kliknutím na zelené tlačítko se znaménkem +mapu přiblížíte, kliknutím na zelené tlačítko se znaménkem – mapu oddálíte a kliknutím na zelené šipky přejdete na sousední mapy.


METAR-TAF: